sensor_id;sensor_type;location;lat;lon;timestamp;pressure;altitude;pressure_sealevel;temperature;humidity
57904;BME280;43720;47.462;19.030;2023-06-05T03:56:18;100671.31;;;17.90;68.80
57904;BME280;43720;47.462;19.030;2023-06-05T03:59:22;100678.94;;;18.17;68.41
57904;BME280;43720;47.462;19.030;2023-06-05T04:02:26;100684.22;;;18.16;67.30
57904;BME280;43720;47.462;19.030;2023-06-05T04:05:29;100678.94;;;18.17;66.44
57904;BME280;43720;47.462;19.030;2023-06-05T04:08:32;100679.78;;;18.18;65.91
57904;BME280;43720;47.462;19.030;2023-06-05T04:11:34;100679.72;;;18.25;65.92
57904;BME280;43720;47.462;19.030;2023-06-05T04:14:37;100675.22;;;18.30;65.44
57904;BME280;43720;47.462;19.030;2023-06-05T04:17:41;100675.84;;;18.52;65.47
57904;BME280;43720;47.462;19.030;2023-06-05T04:20:43;100679.22;;;18.64;65.57
57904;BME280;43720;47.462;19.030;2023-06-05T04:23:46;100679.31;;;18.54;66.02
57904;BME280;43720;47.462;19.030;2023-06-05T04:26:48;100672.28;;;18.53;67.76
57904;BME280;43720;47.462;19.030;2023-06-05T04:29:51;100672.19;;;18.61;67.83
57904;BME280;43720;47.462;19.030;2023-06-05T04:32:54;100675.62;;;18.66;66.92
57904;BME280;43720;47.462;19.030;2023-06-05T04:35:57;100672.97;;;18.66;68.34
57904;BME280;43720;47.462;19.030;2023-06-05T04:39:03;100666.78;;;18.69;66.81
57904;BME280;43720;47.462;19.030;2023-06-05T04:42:16;100676.50;;;18.71;64.30
57904;BME280;43720;47.462;19.030;2023-06-05T04:45:19;100681.69;;;18.77;66.12
57904;BME280;43720;47.462;19.030;2023-06-05T04:48:25;100680.87;;;18.72;66.29
57904;BME280;43720;47.462;19.030;2023-06-05T04:51:29;100679.09;;;18.74;66.42
57904;BME280;43720;47.462;19.030;2023-06-05T04:54:31;100686.28;;;18.63;68.07
57904;BME280;43720;47.462;19.030;2023-06-05T04:57:34;100692.56;;;18.54;69.60
57904;BME280;43720;47.462;19.030;2023-06-05T05:00:37;100684.63;;;18.54;66.49
57904;BME280;43720;47.462;19.030;2023-06-05T05:03:43;100681.00;;;18.63;67.11
57904;BME280;43720;47.462;19.030;2023-06-05T05:06:47;100682.81;;;18.60;68.09
57904;BME280;43720;47.462;19.030;2023-06-05T05:09:49;100676.50;;;18.71;66.95
57904;BME280;43720;47.462;19.030;2023-06-05T05:12:52;100679.88;;;18.83;67.08
57904;BME280;43720;47.462;19.030;2023-06-05T05:15:55;100674.44;;;18.90;64.08
57904;BME280;43720;47.462;19.030;2023-06-05T05:18:57;100674.41;;;18.92;64.99
57904;BME280;43720;47.462;19.030;2023-06-05T05:22:00;100677.97;;;18.91;66.04
57904;BME280;43720;47.462;19.030;2023-06-05T05:25:03;100672.69;;;18.91;65.29
57904;BME280;43720;47.462;19.030;2023-06-05T05:28:06;100677.81;;;19.00;62.25
57904;BME280;43720;47.462;19.030;2023-06-05T05:31:09;100666.16;;;19.12;60.50
57904;BME280;43720;47.462;19.030;2023-06-05T05:34:12;100669.72;;;19.11;60.21
57904;BME280;43720;47.462;19.030;2023-06-05T05:37:14;100674.13;;;19.10;61.89
57904;BME280;43720;47.462;19.030;2023-06-05T05:40:17;100675.59;;;19.28;60.56
57904;BME280;43720;47.462;19.030;2023-06-05T05:43:19;100675.56;;;19.31;59.34
57904;BME280;43720;47.462;19.030;2023-06-05T05:46:22;100679.06;;;19.31;60.28
57904;BME280;43720;47.462;19.030;2023-06-05T05:49:27;100680.84;;;19.31;60.24
57904;BME280;43720;47.462;19.030;2023-06-05T05:52:30;100684.37;;;19.33;58.24
57904;BME280;43720;47.462;19.030;2023-06-05T05:55:34;100679.91;;;19.37;57.54
57904;BME280;43720;47.462;19.030;2023-06-05T05:58:36;100684.31;;;19.36;57.88
57904;BME280;43720;47.462;19.030;2023-06-05T06:01:38;100676.38;;;19.36;58.36
57904;BME280;43720;47.462;19.030;2023-06-05T06:04:41;100671.88;;;19.40;58.57
57904;BME280;43720;47.462;19.030;2023-06-05T06:07:46;100672.62;;;19.46;57.74
57904;BME280;43720;47.462;19.030;2023-06-05T06:10:51;100683.25;;;19.46;57.20
57904;BME280;43720;47.462;19.030;2023-06-05T06:13:53;100676.16;;;19.48;57.44
57904;BME280;43720;47.462;19.030;2023-06-05T06:16:56;100681.41;;;19.51;58.04
57904;BME280;43720;47.462;19.030;2023-06-05T06:19:59;100680.47;;;19.54;60.47
57904;BME280;43720;47.462;19.030;2023-06-05T06:23:02;100687.63;;;19.49;61.52
57904;BME280;43720;47.462;19.030;2023-06-05T06:26:06;100677.81;;;19.55;61.20
57904;BME280;43720;47.462;19.030;2023-06-05T06:29:09;100675.94;;;19.61;61.05
57904;BME280;43720;47.462;19.030;2023-06-05T06:32:11;100674.25;;;19.57;61.86
57904;BME280;43720;47.462;19.030;2023-06-05T06:35:14;100675.84;;;19.67;61.68
57904;BME280;43720;47.462;19.030;2023-06-05T06:38:16;100666.19;;;19.64;62.16
57904;BME280;43720;47.462;19.030;2023-06-05T06:41:19;100675.78;;;19.70;62.55
57904;BME280;43720;47.462;19.030;2023-06-05T06:44:21;100676.66;;;19.72;61.99
57904;BME280;43720;47.462;19.030;2023-06-05T06:47:24;100674.97;;;19.68;63.16
57904;BME280;43720;47.462;19.030;2023-06-05T06:50:27;100677.63;;;19.68;63.23
57904;BME280;43720;47.462;19.030;2023-06-05T06:53:30;100680.13;;;19.75;62.77
57904;BME280;43720;47.462;19.030;2023-06-05T06:56:32;100679.31;;;19.72;63.56
57904;BME280;43720;47.462;19.030;2023-06-05T06:59:35;100666.97;;;19.71;63.70
57904;BME280;43720;47.462;19.030;2023-06-05T07:02:40;100674.84;;;19.74;64.65
57904;BME280;43720;47.462;19.030;2023-06-05T07:05:43;100677.56;;;19.71;65.99
57904;BME280;43720;47.462;19.030;2023-06-05T07:08:45;100667.87;;;19.68;65.99
57904;BME280;43720;47.462;19.030;2023-06-05T07:11:48;100677.47;;;19.74;65.20
57904;BME280;43720;47.462;19.030;2023-06-05T07:14:50;100676.47;;;19.81;65.59
57904;BME280;43720;47.462;19.030;2023-06-05T07:17:53;100678.44;;;19.71;67.79
57904;BME280;43720;47.462;19.030;2023-06-05T07:21:11;100676.50;;;19.79;66.78
57904;BME280;43720;47.462;19.030;2023-06-05T07:24:14;100678.25;;;19.81;66.55
57904;BME280;43720;47.462;19.030;2023-06-05T07:27:17;100681.78;;;19.83;67.27
57904;BME280;43720;47.462;19.030;2023-06-05T07:30:20;100675.69;;;19.76;67.13
57904;BME280;43720;47.462;19.030;2023-06-05T07:33:22;100685.31;;;19.82;65.87
57904;BME280;43720;47.462;19.030;2023-06-05T07:36:32;100687.09;;;19.81;65.82
57904;BME280;43720;47.462;19.030;2023-06-05T07:39:35;100678.09;;;19.88;64.43
57904;BME280;43720;47.462;19.030;2023-06-05T07:42:38;100687.19;;;19.76;65.37
57904;BME280;43720;47.462;19.030;2023-06-05T07:45:41;100690.75;;;19.75;68.23
57904;BME280;43720;47.462;19.030;2023-06-05T07:48:43;100686.25;;;19.77;67.33
57904;BME280;43720;47.462;19.030;2023-06-05T07:51:46;100684.37;;;19.84;65.32
57904;BME280;43720;47.462;19.030;2023-06-05T07:54:53;100679.03;;;19.86;65.58
57904;BME280;43720;47.462;19.030;2023-06-05T07:57:55;100690.22;;;20.03;64.68
57904;BME280;43720;47.462;19.030;2023-06-05T08:00:58;100686.59;;;20.07;64.66
57904;BME280;43720;47.462;19.030;2023-06-05T08:04:02;100688.19;;;20.17;67.62
57904;BME280;43720;47.462;19.030;2023-06-05T08:07:06;100683.91;;;20.09;66.52
57904;BME280;43720;47.462;19.030;2023-06-05T08:10:09;100678.50;;;20.13;64.49
57904;BME280;43720;47.462;19.030;2023-06-05T08:13:11;100681.75;;;20.29;64.24
57904;BME280;43720;47.462;19.030;2023-06-05T08:16:14;100690.28;;;20.43;65.91
57904;BME280;43720;47.462;19.030;2023-06-05T08:19:17;100677.91;;;20.42;64.18
57904;BME280;43720;47.462;19.030;2023-06-05T08:22:20;100686.91;;;20.35;63.14
57904;BME280;43720;47.462;19.030;2023-06-05T08:25:25;100676.97;;;20.45;63.66
57904;BME280;43720;47.462;19.030;2023-06-05T08:28:28;100687.75;;;20.37;63.66
57904;BME280;43720;47.462;19.030;2023-06-05T08:31:31;100683.28;;;20.39;62.03
57904;BME280;43720;47.462;19.030;2023-06-05T08:34:36;100691.88;;;20.54;61.09
57904;BME280;43720;47.462;19.030;2023-06-05T08:37:58;100683.63;;;20.66;61.24
57904;BME280;43720;47.462;19.030;2023-06-05T08:41:05;100680.09;;;20.65;61.58
57904;BME280;43720;47.462;19.030;2023-06-05T08:44:13;100690.56;;;20.73;61.93
57904;BME280;43720;47.462;19.030;2023-06-05T08:47:15;100690.50;;;20.74;61.55
57904;BME280;43720;47.462;19.030;2023-06-05T08:50:18;100685.03;;;20.82;58.12
57904;BME280;43720;47.462;19.030;2023-06-05T08:53:21;100684.81;;;20.91;56.75
57904;BME280;43720;47.462;19.030;2023-06-05T08:56:25;100688.19;;;20.98;58.60
57904;BME280;43720;47.462;19.030;2023-06-05T08:59:29;100683.69;;;21.01;57.70
57904;BME280;43720;47.462;19.030;2023-06-05T09:02:33;100685.28;;;21.09;55.44
57904;BME280;43720;47.462;19.030;2023-06-05T09:05:36;100678.72;;;21.23;54.74
57904;BME280;43720;47.462;19.030;2023-06-05T09:08:38;100670.63;;;21.28;54.78
57904;BME280;43720;47.462;19.030;2023-06-05T09:11:41;100675.34;;;21.53;55.81
57904;BME280;43720;47.462;19.030;2023-06-05T09:14:43;100675.06;;;21.63;53.41
57904;BME280;43720;47.462;19.030;2023-06-05T09:17:45;100666.69;;;21.79;53.46
57904;BME280;43720;47.462;19.030;2023-06-05T09:20:48;100667.31;;;21.88;53.91
57904;BME280;43720;47.462;19.030;2023-06-05T09:23:52;100669.66;;;21.99;55.65
57904;BME280;43720;47.462;19.030;2023-06-05T09:27:03;100660.44;;;22.12;55.04
57904;BME280;43720;47.462;19.030;2023-06-05T09:30:07;100660.09;;;22.25;52.23
57904;BME280;43720;47.462;19.030;2023-06-05T09:33:09;100660.84;;;22.30;51.98
57904;BME280;43720;47.462;19.030;2023-06-05T09:36:13;100663.31;;;22.36;52.15
57904;BME280;43720;47.462;19.030;2023-06-05T09:39:17;100665.28;;;22.29;50.14
57904;BME280;43720;47.462;19.030;2023-06-05T09:42:31;100670.69;;;22.28;51.95
57904;BME280;43720;47.462;19.030;2023-06-05T09:45:41;100669.59;;;22.35;49.63
57904;BME280;43720;47.462;19.030;2023-06-05T09:48:52;100667.94;;;22.29;51.28
57904;BME280;43720;47.462;19.030;2023-06-05T09:52:00;100666.12;;;22.31;49.96
57904;BME280;43720;47.462;19.030;2023-06-05T09:55:04;100666.78;;;22.39;50.19
57904;BME280;43720;47.462;19.030;2023-06-05T09:58:11;100662.66;;;22.57;48.22
57904;BME280;43720;47.462;19.030;2023-06-05T10:01:18;100651.78;;;22.65;50.13
57904;BME280;43720;47.462;19.030;2023-06-05T10:04:26;100650.28;;;22.84;49.84
57904;BME280;43720;47.462;19.030;2023-06-05T10:07:30;100645.69;;;23.17;47.80
57904;BME280;43720;47.462;19.030;2023-06-05T10:10:34;100644.13;;;23.37;47.60
57904;BME280;43720;47.462;19.030;2023-06-05T10:13:36;100647.66;;;23.64;47.73
57904;BME280;43720;47.462;19.030;2023-06-05T10:16:39;100639.44;;;23.95;48.13
57904;BME280;43720;47.462;19.030;2023-06-05T10:19:43;100631.53;;;24.15;45.67
57904;BME280;43720;47.462;19.030;2023-06-05T10:22:46;100629.44;;;24.24;46.08
57904;BME280;43720;47.462;19.030;2023-06-05T10:25:51;100624.47;;;24.38;42.27
57904;BME280;43720;47.462;19.030;2023-06-05T10:39:35;100601.66;;;25.19;39.84
57904;BME280;43720;47.462;19.030;2023-06-05T10:42:39;100607.81;;;25.41;39.07
57904;BME280;43720;47.462;19.030;2023-06-05T10:45:44;100606.13;;;25.59;38.59
57904;BME280;43720;47.462;19.030;2023-06-05T10:49:15;100607.72;;;25.63;38.62
57904;BME280;43720;47.462;19.030;2023-06-05T10:52:35;100600.84;;;25.78;35.92
57904;BME280;43720;47.462;19.030;2023-06-05T10:55:41;100594.91;;;25.71;36.05
57904;BME280;43720;47.462;19.030;2023-06-05T10:59:11;100602.38;;;25.63;37.18
57904;BME280;43720;47.462;19.030;2023-06-05T11:02:21;100597.41;;;25.74;38.28
57904;BME280;43720;47.462;19.030;2023-06-05T11:05:23;100596.50;;;25.96;38.87
57904;BME280;43720;47.462;19.030;2023-06-05T11:08:26;100591.78;;;26.20;38.16
57904;BME280;43720;47.462;19.030;2023-06-05T11:15:01;100584.28;;;27.19;33.91
57904;BME280;43720;47.462;19.030;2023-06-05T11:18:31;100584.12;;;27.40;35.36
57904;BME280;43720;47.462;19.030;2023-06-05T11:22:10;100583.34;;;27.38;35.05
57904;BME280;43720;47.462;19.030;2023-06-05T11:28:42;100587.06;;;27.68;34.57
57904;BME280;43720;47.462;19.030;2023-06-05T11:31:45;100577.62;;;27.61;35.35
57904;BME280;43720;47.462;19.030;2023-06-05T11:34:48;100581.53;;;27.71;35.48
57904;BME280;43720;47.462;19.030;2023-06-05T11:38:18;100573.28;;;27.59;35.67
57904;BME280;43720;47.462;19.030;2023-06-05T11:41:24;100577.78;;;27.58;36.45
57904;BME280;43720;47.462;19.030;2023-06-05T11:44:33;100568.44;;;27.15;37.88
57904;BME280;43720;47.462;19.030;2023-06-05T11:47:35;100567.38;;;27.17;38.96
57904;BME280;43720;47.462;19.030;2023-06-05T11:53:54;100566.41;;;26.83;37.24
57904;BME280;43720;47.462;19.030;2023-06-05T11:57:00;100563.75;;;26.65;39.08
57904;BME280;43720;47.462;19.030;2023-06-05T12:00:07;100560.66;;;26.55;39.36
57904;BME280;43720;47.462;19.030;2023-06-05T12:03:19;100558.69;;;26.40;39.98
57904;BME280;43720;47.462;19.030;2023-06-05T12:06:25;100548.53;;;26.08;40.05
57904;BME280;43720;47.462;19.030;2023-06-05T12:09:28;100549.37;;;26.10;38.75
57904;BME280;43720;47.462;19.030;2023-06-05T12:12:30;100551.28;;;25.88;39.73
57904;BME280;43720;47.462;19.030;2023-06-05T12:15:33;100537.38;;;25.80;38.40
57904;BME280;43720;47.462;19.030;2023-06-05T12:18:36;100543.81;;;25.55;39.77
57904;BME280;43720;47.462;19.030;2023-06-05T12:21:39;100544.66;;;25.37;41.24
57904;BME280;43720;47.462;19.030;2023-06-05T12:24:42;100543.72;;;25.38;41.08
57904;BME280;43720;47.462;19.030;2023-06-05T12:27:44;100526.31;;;25.28;41.02
57904;BME280;43720;47.462;19.030;2023-06-05T12:30:51;100527.25;;;25.27;41.92
57904;BME280;43720;47.462;19.030;2023-06-05T12:33:53;100531.87;;;25.23;42.66
57904;BME280;43720;47.462;19.030;2023-06-05T12:36:55;100523.09;;;25.20;43.86
57904;BME280;43720;47.462;19.030;2023-06-05T12:39:59;100526.47;;;25.25;43.43
57904;BME280;43720;47.462;19.030;2023-06-05T12:43:02;100525.56;;;25.24;42.21
57904;BME280;43720;47.462;19.030;2023-06-05T12:46:05;100522.75;;;25.27;40.77
57904;BME280;43720;47.462;19.030;2023-06-05T12:49:08;100517.53;;;25.24;41.68
57904;BME280;43720;47.462;19.030;2023-06-05T12:52:10;100502.31;;;25.26;41.42
57904;BME280;43720;47.462;19.030;2023-06-05T12:55:13;100506.09;;;25.41;42.86
57904;BME280;43720;47.462;19.030;2023-06-05T12:58:15;100500.97;;;25.55;42.67
57904;BME280;43720;47.462;19.030;2023-06-05T13:01:18;100502.13;;;25.50;39.45
57904;BME280;43720;47.462;19.030;2023-06-05T13:04:20;100497.03;;;25.44;40.85
57904;BME280;43720;47.462;19.030;2023-06-05T13:07:22;100491.63;;;25.45;40.83
57904;BME280;43720;47.462;19.030;2023-06-05T13:10:25;100496.19;;;25.43;40.09
57904;BME280;43720;47.462;19.030;2023-06-05T13:13:27;100487.16;;;25.46;36.91
57904;BME280;43720;47.462;19.030;2023-06-05T13:16:31;100491.25;;;25.34;38.04
57904;BME280;43720;47.462;19.030;2023-06-05T13:19:33;100484.34;;;25.28;39.42
57904;BME280;43720;47.462;19.030;2023-06-05T13:22:36;100490.25;;;25.36;40.22
57904;BME280;43720;47.462;19.030;2023-06-05T13:25:39;100478.00;;;25.31;38.10
57904;BME280;43720;47.462;19.030;2023-06-05T13:28:42;100480.87;;;25.26;39.17
57904;BME280;43720;47.462;19.030;2023-06-05T13:31:46;100484.50;;;25.25;39.27
57904;BME280;43720;47.462;19.030;2023-06-05T13:34:49;100479.16;;;25.25;37.67
57904;BME280;43720;47.462;19.030;2023-06-05T13:37:51;100475.06;;;25.17;36.48
57904;BME280;43720;47.462;19.030;2023-06-05T13:40:54;100479.72;;;25.13;37.69
57904;BME280;43720;47.462;19.030;2023-06-05T13:43:56;100476.22;;;25.11;39.00
57904;BME280;43720;47.462;19.030;2023-06-05T13:47:00;100473.72;;;25.06;38.57
57904;BME280;43720;47.462;19.030;2023-06-05T13:50:05;100487.16;;;25.05;38.25
57904;BME280;43720;47.462;19.030;2023-06-05T13:53:09;100471.72;;;25.11;39.52
57904;BME280;43720;47.462;19.030;2023-06-05T13:56:11;100466.47;;;25.08;39.82
57904;BME280;43720;47.462;19.030;2023-06-05T13:59:14;100473.97;;;25.00;40.55
57904;BME280;43720;47.462;19.030;2023-06-05T14:02:16;100471.25;;;25.02;38.84
57904;BME280;43720;47.462;19.030;2023-06-05T14:05:19;100464.00;;;25.04;39.86
57904;BME280;43720;47.462;19.030;2023-06-05T14:08:21;100466.16;;;24.96;40.23
57904;BME280;43720;47.462;19.030;2023-06-05T14:11:23;100463.28;;;25.00;39.00
57904;BME280;43720;47.462;19.030;2023-06-05T14:14:27;100459.66;;;25.01;39.10
57904;BME280;43720;47.462;19.030;2023-06-05T14:17:29;100460.56;;;25.02;39.02
57904;BME280;43720;47.462;19.030;2023-06-05T14:20:34;100458.94;;;24.98;38.82
57904;BME280;43720;47.462;19.030;2023-06-05T14:23:36;100453.53;;;24.99;37.91
57904;BME280;43720;47.462;19.030;2023-06-05T14:26:39;100458.22;;;24.94;39.02
57904;BME280;43720;47.462;19.030;2023-06-05T14:29:42;100455.53;;;24.94;40.68
57904;BME280;43720;47.462;19.030;2023-06-05T14:32:44;100441.56;;;24.87;39.96
57904;BME280;43720;47.462;19.030;2023-06-05T14:35:46;100447.69;;;24.89;37.41
57904;BME280;43720;47.462;19.030;2023-06-05T14:38:49;100445.09;;;24.88;38.71
57904;BME280;43720;47.462;19.030;2023-06-05T14:41:51;100442.28;;;24.91;39.96
57904;BME280;43720;47.462;19.030;2023-06-05T14:44:53;100445.00;;;24.89;40.49
57904;BME280;43720;47.462;19.030;2023-06-05T14:47:56;100432.88;;;24.82;40.30
57904;BME280;43720;47.462;19.030;2023-06-05T14:50:58;100439.34;;;24.77;39.15
57904;BME280;43720;47.462;19.030;2023-06-05T14:54:00;100441.22;;;24.75;40.92
57904;BME280;43720;47.462;19.030;2023-06-05T14:57:03;100442.97;;;24.76;39.76
57904;BME280;43720;47.462;19.030;2023-06-05T15:00:06;100450.13;;;24.75;41.12
57904;BME280;43720;47.462;19.030;2023-06-05T15:03:09;100445.97;;;24.68;39.51
57904;BME280;43720;47.462;19.030;2023-06-05T15:06:13;100444.34;;;24.64;38.37
57904;BME280;43720;47.462;19.030;2023-06-05T15:09:21;100433.91;;;24.58;38.89
57904;BME280;43720;47.462;19.030;2023-06-05T15:12:24;100437.28;;;24.63;38.71
57904;BME280;43720;47.462;19.030;2023-06-05T15:15:26;100427.69;;;24.57;38.56
57904;BME280;43720;47.462;19.030;2023-06-05T15:18:28;100425.34;;;24.50;37.63
57904;BME280;43720;47.462;19.030;2023-06-05T15:21:31;100429.97;;;24.46;39.36
57904;BME280;43720;47.462;19.030;2023-06-05T15:24:33;100426.53;;;24.43;39.05
57904;BME280;43720;47.462;19.030;2023-06-05T15:27:37;100421.34;;;24.38;40.32
57904;BME280;43720;47.462;19.030;2023-06-05T15:30:40;100423.28;;;24.34;38.75
57904;BME280;43720;47.462;19.030;2023-06-05T15:33:42;100416.41;;;24.29;39.72
57904;BME280;43720;47.462;19.030;2023-06-05T15:36:45;100415.66;;;24.25;39.25
57904;BME280;43720;47.462;19.030;2023-06-05T15:39:47;100410.22;;;24.28;38.92
